Scroll down
FLIGHT INFORMATION
British Airways

BAW2263

At Arrival Gate

EGKK
 MKJP
DATE: 2022-10-20
GATE: 27
GATE DEPARTURE: 11:45
TAKEOFF: 11:54
DATE: 2022-10-20
GATE:  -
LANDING: 21:46
GATE ARRIVAL: 21:49
FLIGHT DATA
Crew: 
Speed: 
908 kph
Altitude: 
40,018 ft
Stage Length: 
7,536.8 km
Block Time: 
10 hrs
Flight Time: 
9.9 hrs
Fuel Used: 
66,163 kg
Cleared Route: EGKK NOVMA HAZEL SAM NULGU ADKIK HICAP MERLY MOPAT KOMAG LIMRI 5220N 5030N 4840N 4550N RAFIN NANSO JEBBY MUNEY OVAPI KINER GOUGH LSIER GRATX DUKKY RADOK MKJP
TRACK DATA
50,000 ft 1,000 kts
AIRCRAFT INFO AND CUMULATIVE STATS
Aircraft Type: 
B772
Registration: 
SELCAL: 
JQKS
MSN/LN: 
29322 / 203
Operator: 
Total Flights: 
18
Total Block Time: 
97.8 hrs
Total Flight Time: 
93.3 hrs
Total Fuel Used: 
613,546 kg
DATALINK LOG | Newest first | Current as of: 2023-02-07 01:50:17
LABEL SEQUENCE CONTENT Dn/Up
QD494921:49 35.5▼ Dn
QC464821:46▼ Dn
GA2940GATE PENDING▲ Up
GR2930MKJP 21:46 MAAS 00 YP/UM 00/00 WCHR/S/C 00/00/00 HI-VAL NO DIPL/VIP NO▼ Dn
2U4946MYNN 202000Z 02005KT 350V050 9999 FEW018 BKN120 27/22 A2989▲ Up
2S4850MYNN▼ Dn
2U4552MKJS 202042Z VRB05KT 9999 FEW022CB 28/24 Q1014▲ Up
2S4547MKJS▼ Dn
2U4330MKJP 202027Z 18010KT 9999 FEW022CB 29/23 Q1014▲ Up
2S4244MKJP▼ Dn
UM341919CRUISE CLIMB TO 360▲ Up
UM170829AT 19 PAST THE HOUR EXPECT CRUISE CLIMB TO 360▲ Up
DM540819WHEN CAN WE EXPECT CRUISE CLIMB TO FL 360▼ Dn
UM0 UM190728UNABLE. MAINTAIN ASSIGNED ALTITUDE▲ Up
DM60718REQUEST FL 360 DUE TO A/C PERF▼ Dn
UM790824CLX 1208 221020 CYQX CLRNCE 686 BAW2263 CLEARED TO MKJP VIA LIMRI 52N020W 50N030W 48N040W 45N050W RAFIN MNTN F360 M083 JQKS.▲ Up
UM250822REQUESTING OCEANIC CLRNC CT EGTT CS EP LIMRI FL 360 ETA 21:29 SPD M0.83▼ Dn
QB550911:54▼ Dn
QA460011:45 181.6▼ Dn
5Z405520 OCT 22 11:40:29z / FLT DECK GOOD / ACF POS GOOD / GRND SERVICES GOOD / MAINT FAILURES ACTIVE▼ Dn
2U3841EGKK 201050Z 12003KT 9999 SCT006 SCT010 17/15 Q1006▲ Up
2S3752EGKK▼ Dn
5Z365320 OCT 22 11:36:29z / FLT DECK GOOD / ACF POS GOOD / GRND SERVICES GOOD / MAINT GOOD▼ Dn
A33652CLEARED TO MKJP VIA NOVM1X NOVMA HAZEL L620 SAM N19 ADKIK L22 MOPAT KOMAG LIMRI NATF RAFIN N76A NANSO JEBBY M202 GOUGH LSIER GRATX DUKKY RADOK ELSER5. SQUAWK 2410.▲ Up
B33651EGKK MKJP BAW2263 G-VIIR ▼ Dn
Q03046[LINK ACK]▲ Up
Q03046[LINK TEST]▼ Dn


AIRCRAFT HISTORY
FLIGHT DATE FLIGHT NO. ORIGIN DESTINATION CLEARED ROUTE BLOCK TIME FLIGHT TIME FUEL USED PILOT
2022-10-22BAW2262MKJP EGKK MKJP TIBEL KEBET GABUN AVABI LODMA RIBON GOVEV ILAGA JOSES KNSLY SMTTY AVNEY MILLE GALVN PERDO KINER DRYED NOVOK CARAC GRUPI PEPRA PORTI 4750N 4940N 4830N 4720N 4715N ETIKI REGHI AMPOP MABUG OSMAP ORVUX DAWLY ELRIP OTMET EGKK9.2 hrs9 hrs130,077 lbAnton Vind
2022-10-20BAW2263EGKK MKJP EGKK NOVMA HAZEL SAM NULGU ADKIK HICAP MERLY MOPAT KOMAG LIMRI 5220N 5030N 4840N 4550N RAFIN NANSO JEBBY MUNEY OVAPI KINER GOUGH LSIER GRATX DUKKY RADOK MKJP10 hrs9.9 hrs145,864 lbAnton Vind
2022-10-15BAW2156TAPA EGKK TAPA ANU AMTTO 1960N 2355N 2750N 3440N 3935N 4330N 4820N 4815N OMOKO GUNSO GAPLI TESDO RIGDI SIDDI ORVUX DAWLY ELRIP OTMET EGKK7.7 hrs7.4 hrs102,081 lbAnton Vind
2022-10-13BAW2156MBPV TAPA MBPV GTK HAGIT CALTO ZIBER SAYER BEANO JETSS SLUGO ELOPO ANU TAPA1.7 hrs1.6 hrs21,632 lbAnton Vind
2022-10-13BAW2157TAPA MBPV TAPA SKB GABAR DANDE MLIZA STIIV GOTAY ACONY SAPPO NOPIT ANTOX GTK MBPV1.9 hrs1.7 hrs25,195 lbAnton Vind
2022-10-12BAW2157EGKK TAPA EGKK IMVUR VOUGA SAM NULGU ADKIK KOXOD JOZMA SOPTU UNPUP GAPLI OMOKO 4520N 4130N 3935N 3640N 2850N 2455N 1960N AMTTO ANU TAPA8.3 hrs8 hrs109,167 lbAnton Vind
2021-09-06BAW2156TAPA EGKK TAPA ANU AMTTO 1960N 2455N 2752N 2950N 3940N 4330N 4620N OMOKO GUNSO GAPLI TESDO RIGDI SIDDI ORVUX DAWLY ELRIP OTMET EGKK7.8 hrs7.6 hrs104,470 lbAnton Vind
2021-09-04BAW2256TGPY TAPA TGPY EMKIS LIMBO ANU TAPA1 hrs0.9 hrs13,636 lbAnton Vind
2021-09-04BAW2157TAPA TGPY TAPA ANU LIMBO EMKIS DUSAL TGPY1.1 hrs0.9 hrs14,095 lbAnton Vind
2021-09-02BAW2157EGKK TAPA EGKK IMVUR VOUGA SAM NULGU ADKIK KOXOD JOZMA SOPTU UNPUP GAPLI OMOKO 4720N 4330N 4040N 3645N 3150N 2655N 1960N AMTTO ANU TAPA8.1 hrs7.8 hrs109,552 lbAnton Vind
2021-02-26BAW1622KTPA EGKK KTPA FINKI BAYPO ECAKE WILON SPRNG CAMJO HEPAR TEEEM RIELE PANDY MULLS HASET BLAMO TYI FKN SWL WARNN ZIZZI YAZUU EMJAY GEDIC RIFLE ACK KANNI SUPRY 4650N 4940N 5230N 5320N MALOT GISTI NORLA MERLY DIDEL FONZU ELRIP OTMET EGKK8.2 hrs8 hrs111,145 lb-HIDDEN-
2021-02-22BAW1603EGKK KTPA EGKK KKW07 KKW09 MID NOVMA NIBDA HAZEL SAM NULGU ADKIK HICAP MERLY MOPAT RESNO 5620N 5730N 5640N 5450N NEEKO ALLEX OWENZ DIW ILM METTA DADES KTPA9.5 hrs9.3 hrs133,923 lb-HIDDEN-
2021-02-21BAW236EGPF EGKK EGPF XEXUS ELBAN TRN35 NORBO ORVUL OSMEG RIPNO DCS SUBUK KEPAD TELBA VIDOK UMLUX PEPUL DISIT KIDLI MID TUFOZ HOLLY WILLO CF08R RW08R1.5 hrs1.2 hrs19,509 lb-HIDDEN-
2021-02-21BAW885EGKK EGPF EGKK KKW02 KKE09 KKE11 KKE15 SUNAV KKE35 KKN43 KKN48 LAM BPK POTON BEDFO EBOTO PIPIN LESTA EMBOR XAPOS BOLBI ULSAX POL NELSA RIBEL EGPF1.3 hrs1 hrs17,663 lb-HIDDEN-
2021-02-20BAW1622KTPA EGKK KTPA CAMJO HEPAR TEEEM RIELE PANDY MULLS HASET BLAMO TYI FKN SWL WARNN ZIZZI YAZUU EMJAY GEDIC RIFLE ACK KANNI SUPRY 4650N 4840N 4930N 5020N SOMAX ATSUR GAPLI TESDO RIGDI SIDDI ORVUX DAWLY ELRIP OTMET EGKK7.7 hrs7.5 hrs117,758 lb-HIDDEN-
2021-02-19BAW1623EGKK KTPA EGKK KKE05 KKN09 KKW19 IMVUR VOUGA SAM NULGU ADKIK HICAP MERLY MOPAT SUNOT 5820N 5930N 5840N 5650N JANJO TAFFY GDM JFK JOANI VILLS NALES TYI BLAMO HASET MULLS CHS DADES KTPA10.3 hrs10 hrs147,969 lb-HIDDEN-
2021-02-15BAW710EGCC EGKK EGCC D057A D186X POL28 POL33 LISTO HON KIDLI MID TUFOZ HOLLY WILLO TIMBA RW26L1.1 hrs0.7 hrs14,699 lb-HIDDEN-
2021-02-11BAW211EGGK EGCC EGKK LAM WELIN AKUPA TIMPO ELVOS TNT EGCC1.2 hrs0.8 hrs14,202 lb-HIDDEN-